createdAt,value
2023-08-21T00:02:17.757Z,97829.31
2023-08-21T00:04:44.834Z,97829.63
2023-08-21T00:07:12.662Z,97830.56
2023-08-21T00:09:39.834Z,97831.56
2023-08-21T00:12:07.553Z,97833.94
2023-08-21T00:14:34.656Z,97831.31
2023-08-21T00:17:04.431Z,97843.75
2023-08-21T00:19:32.120Z,97828.34
2023-08-21T00:21:59.374Z,97830.66
2023-08-21T00:24:26.454Z,97843.66
2023-08-21T00:26:53.514Z,97835.84
2023-08-21T00:29:20.608Z,97835.00
2023-08-21T00:31:47.902Z,97827.63
2023-08-21T00:34:15.347Z,97835.50
2023-08-21T00:36:42.434Z,97835.22
2023-08-21T00:39:09.444Z,97836.38
2023-08-21T00:41:36.582Z,97834.75
2023-08-21T00:44:03.997Z,97837.44
2023-08-21T00:46:32.824Z,97832.53
2023-08-21T00:49:00.031Z,97828.44
2023-08-21T00:51:27.819Z,97828.13
2023-08-21T00:53:54.885Z,97836.44
2023-08-21T00:56:22.526Z,97839.69
2023-08-21T00:58:49.722Z,97836.34
2023-08-21T01:01:19.653Z,97836.13
2023-08-21T01:03:46.711Z,97841.75
2023-08-21T01:06:14.236Z,97835.97
2023-08-21T01:08:53.969Z,97839.25
2023-08-21T01:11:59.314Z,97833.00
2023-08-21T01:14:49.223Z,97841.50
2023-08-21T01:17:19.284Z,97842.13
2023-08-21T01:19:49.933Z,97833.31
2023-08-21T01:22:17.260Z,97831.97
2023-08-21T01:24:44.322Z,97838.91
2023-08-21T01:27:13.534Z,97834.22
2023-08-21T01:29:41.019Z,97835.06
2023-08-21T01:32:15.749Z,97839.19
2023-08-21T01:34:43.457Z,97834.50
2023-08-21T01:37:11.384Z,97829.47
2023-08-21T01:39:38.562Z,97833.66
2023-08-21T01:42:06.735Z,97830.41
2023-08-21T01:44:33.830Z,97836.69
2023-08-21T01:47:03.711Z,97838.72
2023-08-21T01:49:30.865Z,97837.66
2023-08-21T01:51:57.960Z,97839.13
2023-08-21T01:54:26.314Z,97834.88
2023-08-21T01:56:53.334Z,97841.09
2023-08-21T01:59:21.344Z,97839.88
2023-08-21T02:01:48.487Z,97843.16
2023-08-21T02:04:15.530Z,97839.19
2023-08-21T02:06:42.702Z,97837.56
2023-08-21T02:09:09.770Z,97836.34
2023-08-21T02:11:37.201Z,97842.28
2023-08-21T02:14:04.290Z,97836.16
2023-08-21T02:16:31.446Z,97844.84
2023-08-21T02:18:59.137Z,97837.78
2023-08-21T02:21:26.660Z,97840.09
2023-08-21T02:23:53.662Z,97834.16
2023-08-21T02:26:21.426Z,97844.63
2023-08-21T02:28:48.534Z,97840.44
2023-08-21T02:31:15.615Z,97833.84
2023-08-21T02:33:42.711Z,97844.00
2023-08-21T02:36:09.853Z,97842.81
2023-08-21T02:38:36.899Z,97847.25
2023-08-21T02:41:04.842Z,97844.06
2023-08-21T02:43:31.885Z,97842.09
2023-08-21T02:45:58.920Z,97854.22
2023-08-21T02:48:26.054Z,97853.03
2023-08-21T02:50:53.278Z,97840.31
2023-08-21T02:53:21.821Z,97847.94
2023-08-21T02:55:48.893Z,97849.00
2023-08-21T02:58:15.930Z,97852.47
2023-08-21T03:00:43.033Z,97852.31
2023-08-21T03:03:10.122Z,97849.81
2023-08-21T03:05:37.406Z,97850.50
2023-08-21T03:08:04.789Z,97845.56
2023-08-21T03:10:34.956Z,97855.66
2023-08-21T03:13:02.152Z,97854.84
2023-08-21T03:15:29.263Z,97851.59
2023-08-21T03:17:57.436Z,97857.75
2023-08-21T03:20:24.620Z,97866.41
2023-08-21T03:22:51.775Z,97867.41
2023-08-21T03:25:19.066Z,97864.75
2023-08-21T03:27:50.392Z,97866.00
2023-08-21T03:30:18.047Z,97869.91
2023-08-21T03:32:45.173Z,97866.22
2023-08-21T03:35:12.820Z,97878.91
2023-08-21T03:37:40.119Z,97875.00
2023-08-21T03:40:10.409Z,97879.13
2023-08-21T03:42:37.688Z,97878.50
2023-08-21T03:45:06.243Z,97868.03
2023-08-21T03:47:33.527Z,97874.19
2023-08-21T03:50:05.806Z,97882.41
2023-08-21T03:52:32.924Z,97880.34
2023-08-21T03:55:00.093Z,97876.63
2023-08-21T03:57:28.784Z,97869.00
2023-08-21T03:59:55.763Z,97875.53
2023-08-21T04:02:25.294Z,97870.38
2023-08-21T04:04:53.634Z,97873.84
2023-08-21T04:07:20.724Z,97879.75
2023-08-21T04:09:47.996Z,97879.63
2023-08-21T04:12:15.079Z,97883.47
2023-08-21T04:14:42.201Z,97886.13
2023-08-21T04:17:09.370Z,97879.09
2023-08-21T04:19:38.425Z,97888.91
2023-08-21T04:22:05.507Z,97883.06
2023-08-21T04:24:32.795Z,97881.59
2023-08-21T04:26:59.863Z,97877.00
2023-08-21T04:29:27.029Z,97883.72
2023-08-21T04:31:54.461Z,97883.66
2023-08-21T04:34:21.475Z,97883.16
2023-08-21T04:36:48.609Z,97890.44
2023-08-21T04:39:15.971Z,97885.16
2023-08-21T04:41:43.267Z,97882.34
2023-08-21T04:44:10.977Z,97889.66
2023-08-21T04:46:38.308Z,97893.53
2023-08-21T04:49:05.489Z,97888.94
2023-08-21T04:51:32.804Z,97893.31
2023-08-21T04:54:02.514Z,97888.22
2023-08-21T04:56:29.545Z,97894.09
2023-08-21T04:58:57.143Z,97897.03
2023-08-21T05:01:26.679Z,97893.97
2023-08-21T05:03:55.489Z,97895.03
2023-08-21T05:06:22.665Z,97898.22
2023-08-21T05:08:50.698Z,97887.72
2023-08-21T05:11:20.758Z,97894.38
2023-08-21T05:13:47.845Z,97894.13
2023-08-21T05:16:17.837Z,97890.44
2023-08-21T05:18:44.961Z,97893.94
2023-08-21T05:21:12.129Z,97895.09
2023-08-21T05:23:39.245Z,97890.06
2023-08-21T05:26:08.787Z,97901.34
2023-08-21T05:28:35.820Z,97897.63
2023-08-21T05:31:03.493Z,97905.06
2023-08-21T05:33:42.410Z,97896.63
2023-08-21T05:36:09.480Z,97902.03
2023-08-21T05:38:36.589Z,97907.94
2023-08-21T05:41:03.615Z,97899.06
2023-08-21T05:43:31.363Z,97901.94
2023-08-21T05:45:58.472Z,97900.63
2023-08-21T05:48:25.627Z,97906.91
2023-08-21T05:50:53.961Z,97900.34
2023-08-21T05:53:21.078Z,97894.81
2023-08-21T05:55:48.115Z,97898.38
2023-08-21T05:58:16.521Z,97901.03
2023-08-21T06:00:45.650Z,97896.38
2023-08-21T06:03:12.964Z,97900.97
2023-08-21T06:06:06.487Z,97899.22
2023-08-21T06:08:33.580Z,97902.19
2023-08-21T06:11:00.594Z,97911.13
2023-08-21T06:13:28.152Z,97898.59
2023-08-21T06:15:56.599Z,97911.00
2023-08-21T06:18:25.178Z,97909.72
2023-08-21T06:20:55.061Z,97914.00
2023-08-21T06:23:22.746Z,97917.19
2023-08-21T06:25:51.030Z,97917.59
2023-08-21T06:28:20.329Z,97930.72
2023-08-21T06:30:47.609Z,97925.09
2023-08-21T06:33:15.663Z,97929.19
2023-08-21T06:35:42.790Z,97927.38
2023-08-21T06:38:09.855Z,97926.03
2023-08-21T06:40:36.948Z,97927.38
2023-08-21T06:43:07.041Z,97930.72
2023-08-21T06:45:35.633Z,97927.53
2023-08-21T06:48:04.717Z,97936.00
2023-08-21T06:50:32.279Z,97930.75
2023-08-21T06:52:59.582Z,97934.84
2023-08-21T06:55:26.667Z,97940.03
2023-08-21T06:57:53.753Z,97932.94
2023-08-21T07:00:20.855Z,97941.34
2023-08-21T07:02:47.958Z,97939.47
2023-08-21T07:05:15.310Z,97943.28
2023-08-21T07:07:42.453Z,97942.22
2023-08-21T07:10:09.992Z,97942.84
2023-08-21T07:12:37.124Z,97946.09
2023-08-21T07:15:04.936Z,97945.59
2023-08-21T07:17:32.194Z,97948.00
2023-08-21T07:19:59.223Z,97953.97
2023-08-21T07:22:26.291Z,97943.16
2023-08-21T07:24:53.417Z,97954.00
2023-08-21T07:27:20.500Z,97949.94
2023-08-21T07:29:47.610Z,97942.91
2023-08-21T07:32:14.731Z,97944.25
2023-08-21T07:34:41.794Z,97940.16
2023-08-21T07:37:10.247Z,97949.59
2023-08-21T07:39:37.418Z,97949.88
2023-08-21T07:42:04.814Z,97936.78
2023-08-21T07:44:31.832Z,97939.63
2023-08-21T07:46:58.979Z,97945.88
2023-08-21T07:49:25.968Z,97936.94
2023-08-21T07:51:52.999Z,97942.66
2023-08-21T07:54:20.038Z,97946.97
2023-08-21T07:56:47.123Z,97955.53
2023-08-21T07:59:14.303Z,97950.91
2023-08-21T08:01:41.348Z,97954.94
2023-08-21T08:04:09.007Z,97952.31
2023-08-21T08:06:36.344Z,97945.03
2023-08-21T08:09:04.899Z,97947.66
2023-08-21T08:11:31.917Z,97952.72
2023-08-21T08:13:59.079Z,97951.41
2023-08-21T08:16:26.219Z,97954.16
2023-08-21T08:18:53.280Z,97945.19
2023-08-21T08:21:20.352Z,97946.47
2023-08-21T08:23:47.400Z,97945.84
2023-08-21T08:26:14.451Z,97940.78
2023-08-21T08:28:41.472Z,97939.22
2023-08-21T08:31:08.495Z,97942.41
2023-08-21T08:33:35.739Z,97950.75
2023-08-21T08:36:02.810Z,97947.13
2023-08-21T08:38:29.826Z,97941.75
2023-08-21T08:40:59.027Z,97940.66
2023-08-21T08:43:27.161Z,97941.69
2023-08-21T08:45:57.785Z,97936.81
2023-08-21T08:48:25.731Z,97927.56
2023-08-21T08:50:53.381Z,97930.91
2023-08-21T08:53:21.439Z,97933.47
2023-08-21T08:55:50.000Z,97925.88
2023-08-21T08:58:17.044Z,97920.84
2023-08-21T09:00:44.321Z,97918.81
2023-08-21T09:03:13.535Z,97912.50
2023-08-21T09:05:42.086Z,97918.00
2023-08-21T09:08:13.763Z,97914.72
2023-08-21T09:10:42.241Z,97912.22
2023-08-21T09:13:20.032Z,97909.16
2023-08-21T09:15:55.664Z,97902.19
2023-08-21T09:18:23.202Z,97904.88
2023-08-21T09:20:50.436Z,97901.91
2023-08-21T09:23:18.931Z,97904.03
2023-08-21T09:25:50.697Z,97899.97
2023-08-21T09:28:22.492Z,97906.81
2023-08-21T09:30:56.188Z,97917.50
2023-08-21T09:33:25.119Z,97910.56
2023-08-21T09:35:56.116Z,97916.41
2023-08-21T09:38:23.882Z,97901.78
2023-08-21T09:40:55.859Z,97900.81
2023-08-21T09:43:24.725Z,97889.00
2023-08-21T10:17:48.242Z,97874.00
2023-08-21T10:20:25.710Z,97886.25
2023-08-21T10:23:02.721Z,97876.25
2023-08-21T10:25:32.226Z,97872.19
2023-08-21T10:28:06.279Z,97875.63
2023-08-21T10:30:33.506Z,97878.06
2023-08-21T10:33:01.449Z,97881.13
2023-08-21T10:35:32.776Z,97869.22
2023-08-21T10:38:13.990Z,97876.00
2023-08-21T10:40:42.192Z,97871.13
2023-08-21T10:43:46.912Z,97870.81
2023-08-21T10:46:14.390Z,97872.09
2023-08-21T10:48:41.474Z,97876.47
2023-08-21T10:51:10.214Z,97857.16
2023-08-21T10:53:37.723Z,97852.31
2023-08-21T10:56:06.210Z,97855.50
2023-08-21T10:58:40.123Z,97851.91
2023-08-21T11:01:07.415Z,97856.75
2023-08-21T11:03:34.693Z,97857.97
2023-08-21T11:06:04.259Z,97860.94
2023-08-21T11:08:32.553Z,97859.03
2023-08-21T11:10:59.742Z,97853.97
2023-08-21T11:13:27.193Z,97850.19
2023-08-21T11:16:05.936Z,97849.56
2023-08-21T11:18:37.746Z,97853.06
2023-08-21T11:21:10.210Z,97853.03
2023-08-21T11:23:39.373Z,97847.59
2023-08-21T11:26:20.100Z,97839.66
2023-08-21T11:28:49.221Z,97839.59
2023-08-21T11:31:17.694Z,97840.41
2023-08-21T11:33:52.008Z,97838.19
2023-08-21T11:36:20.319Z,97845.78
2023-08-21T11:39:06.245Z,97847.72
2023-08-21T11:41:33.114Z,97848.50
2023-08-21T11:44:05.324Z,97833.19
2023-08-21T11:46:32.521Z,97823.47
2023-08-21T11:49:01.558Z,97842.44
2023-08-21T11:51:28.883Z,97826.91
2023-08-21T11:53:55.964Z,97825.69
2023-08-21T11:56:28.872Z,97840.25
2023-08-21T11:58:55.963Z,97831.66
2023-08-21T12:01:24.081Z,97835.91
2023-08-21T12:03:58.048Z,97835.47
2023-08-21T12:06:26.813Z,97837.84
2023-08-21T12:08:54.313Z,97836.00
2023-08-21T12:11:22.128Z,97837.56
2023-08-21T12:13:49.123Z,97842.66
2023-08-21T12:16:16.299Z,97842.84
2023-08-21T12:18:43.429Z,97831.09
2023-08-21T12:21:10.528Z,97841.84
2023-08-21T12:23:37.529Z,97848.47
2023-08-21T12:26:04.643Z,97845.53
2023-08-21T12:28:31.911Z,97849.16
2023-08-21T12:30:58.957Z,97842.31
2023-08-21T12:33:26.052Z,97843.81
2023-08-21T12:35:53.152Z,97839.91
2023-08-21T12:38:21.808Z,97832.47
2023-08-21T12:40:48.988Z,97840.09
2023-08-21T12:43:16.026Z,97833.38
2023-08-21T12:45:43.210Z,97838.84
2023-08-21T12:48:10.396Z,97829.38
2023-08-21T12:50:37.612Z,97835.19
2023-08-21T12:53:04.758Z,97830.44
2023-08-21T12:55:32.280Z,97823.66
2023-08-21T12:57:59.385Z,97834.84
2023-08-21T13:00:26.546Z,97826.34
2023-08-21T13:02:53.672Z,97833.25
2023-08-21T13:05:20.872Z,97830.41
2023-08-21T13:07:47.985Z,97824.91
2023-08-21T13:10:14.990Z,97831.53
2023-08-21T13:12:42.633Z,97834.25
2023-08-21T13:15:10.138Z,97841.66
2023-08-21T13:17:37.611Z,97847.97
2023-08-21T13:20:05.164Z,97851.09
2023-08-21T13:22:52.842Z,97843.50
2023-08-21T13:25:24.462Z,97832.75
2023-08-21T13:27:52.341Z,97838.09
2023-08-21T13:30:19.488Z,97826.78
2023-08-21T13:32:46.551Z,97829.53
2023-08-21T13:35:14.048Z,97831.03
2023-08-21T13:37:41.705Z,97838.28
2023-08-21T13:40:14.034Z,97840.13
2023-08-21T13:42:46.550Z,97839.31
2023-08-21T13:45:18.714Z,97841.88
2023-08-21T13:47:48.801Z,97827.69
2023-08-21T13:50:18.166Z,97827.38
2023-08-21T13:52:47.935Z,97838.03
2023-08-21T13:55:15.903Z,97840.59
2023-08-21T13:57:42.958Z,97834.44
2023-08-21T14:00:14.861Z,97832.50
2023-08-21T14:02:43.132Z,97835.47
2023-08-21T14:05:12.222Z,97827.13
2023-08-21T14:07:41.120Z,97845.63
2023-08-21T14:10:09.495Z,97839.34
2023-08-21T14:12:39.710Z,97845.81
2023-08-21T14:15:09.348Z,97847.28
2023-08-21T14:17:36.496Z,97843.09
2023-08-21T14:20:04.794Z,97849.00
2023-08-21T14:22:32.063Z,97849.78
2023-08-21T14:24:59.104Z,97846.56
2023-08-21T14:27:26.254Z,97852.28
2023-08-21T14:29:53.322Z,97841.81
2023-08-21T14:32:20.461Z,97849.75
2023-08-21T14:34:48.405Z,97847.78
2023-08-21T14:37:16.839Z,97847.84
2023-08-21T14:39:44.644Z,97851.50
2023-08-21T14:42:12.548Z,97848.19
2023-08-21T14:44:39.581Z,97847.94
2023-08-21T14:47:08.366Z,97851.19
2023-08-21T14:49:36.070Z,97847.16
2023-08-21T14:52:03.586Z,97845.97
2023-08-21T14:54:30.621Z,97841.09
2023-08-21T14:56:57.651Z,97852.59
2023-08-21T14:59:24.839Z,97843.31
2023-08-21T15:01:52.029Z,97837.03
2023-08-21T15:04:19.125Z,97841.13
2023-08-21T15:06:46.691Z,97842.81
2023-08-21T15:09:14.387Z,97842.53
2023-08-21T15:11:41.526Z,97842.09
2023-08-21T15:14:13.008Z,97839.44
2023-08-21T15:16:40.981Z,97843.31
2023-08-21T15:19:08.114Z,97840.97
2023-08-21T15:21:35.435Z,97843.19
2023-08-21T15:24:05.323Z,97838.31
2023-08-21T15:26:32.775Z,97843.56
2023-08-21T15:29:01.363Z,97854.06
2023-08-21T15:31:28.643Z,97841.06
2023-08-21T15:33:55.834Z,97839.31
2023-08-21T15:36:22.994Z,97841.84
2023-08-21T15:38:50.150Z,97842.13
2023-08-21T15:41:17.238Z,97845.09
2023-08-21T15:43:44.296Z,97854.63
2023-08-21T15:46:11.394Z,97853.47
2023-08-21T15:48:38.478Z,97860.59
2023-08-21T15:51:05.617Z,97861.41
2023-08-21T15:53:32.681Z,97854.72
2023-08-21T15:55:59.817Z,97857.22
2023-08-21T15:58:26.960Z,97849.56
2023-08-21T16:00:53.998Z,97848.53
2023-08-21T16:03:21.069Z,97848.53
2023-08-21T16:05:48.310Z,97851.34
2023-08-21T16:08:15.451Z,97853.59
2023-08-21T16:10:42.567Z,97850.97
2023-08-21T16:13:09.613Z,97853.81
2023-08-21T16:15:36.785Z,97859.69
2023-08-21T16:18:04.072Z,97856.25
2023-08-21T16:20:31.158Z,97854.44
2023-08-21T16:22:58.231Z,97864.38
2023-08-21T16:25:25.789Z,97856.09
2023-08-21T16:27:52.945Z,97852.66
2023-08-21T16:30:20.054Z,97850.63
2023-08-21T16:32:47.357Z,97852.44
2023-08-21T16:35:14.367Z,97844.38
2023-08-21T16:37:42.762Z,97852.09
2023-08-21T16:40:13.094Z,97855.75
2023-08-21T16:42:40.903Z,97850.97
2023-08-21T16:45:12.205Z,97850.19
2023-08-21T16:47:39.370Z,97852.13
2023-08-21T16:50:07.633Z,97860.03
2023-08-21T16:52:34.689Z,97863.25
2023-08-21T16:55:01.736Z,97857.03
2023-08-21T16:57:28.766Z,97860.81
2023-08-21T16:59:57.478Z,97856.25
2023-08-21T17:02:25.101Z,97856.53
2023-08-21T17:04:52.758Z,97857.88
2023-08-21T17:07:19.788Z,97858.94
2023-08-21T17:09:47.844Z,97860.03
2023-08-21T17:12:18.326Z,97860.56
2023-08-21T17:14:46.517Z,97862.72
2023-08-21T17:17:13.689Z,97861.38
2023-08-21T17:19:40.753Z,97873.56
2023-08-21T17:22:08.759Z,97877.63
2023-08-21T17:24:35.877Z,97875.19
2023-08-21T17:27:04.101Z,97875.97
2023-08-21T17:29:31.169Z,97878.84
2023-08-21T17:31:58.587Z,97872.50
2023-08-21T17:34:25.798Z,97874.81
2023-08-21T17:36:53.727Z,97880.13
2023-08-21T17:39:20.873Z,97886.78
2023-08-21T17:41:48.065Z,97884.88
2023-08-21T17:44:15.512Z,97887.28
2023-08-21T17:46:42.716Z,97888.84
2023-08-21T17:49:09.748Z,97888.53
2023-08-21T17:51:36.866Z,97897.91
2023-08-21T17:54:04.418Z,97893.00
2023-08-21T17:56:31.770Z,97895.94
2023-08-21T17:58:59.012Z,97898.66
2023-08-21T18:01:26.330Z,97896.97
2023-08-21T18:03:53.638Z,97899.63
2023-08-21T18:06:23.152Z,97905.97
2023-08-21T18:08:50.838Z,97911.53
2023-08-21T18:11:18.982Z,97905.00
2023-08-21T18:13:46.304Z,97907.53
2023-08-21T18:16:13.435Z,97903.91
2023-08-21T18:18:46.648Z,97908.69
2023-08-21T18:21:14.605Z,97906.00
2023-08-21T18:23:41.782Z,97910.06
2023-08-21T18:26:08.905Z,97909.78
2023-08-21T18:28:35.937Z,97916.03
2023-08-21T18:31:03.782Z,97919.03
2023-08-21T18:33:31.082Z,97922.16
2023-08-21T18:36:00.293Z,97919.81
2023-08-21T18:38:27.662Z,97928.34
2023-08-21T18:40:55.656Z,97925.88
2023-08-21T18:43:22.800Z,97928.34
2023-08-21T18:45:52.533Z,97936.81
2023-08-21T18:48:20.406Z,97939.03
2023-08-21T18:50:47.641Z,97940.50
2023-08-21T18:53:15.711Z,97947.03
2023-08-21T18:55:44.724Z,97942.53
2023-08-21T18:58:12.828Z,97938.84
2023-08-21T19:00:40.099Z,97938.28
2023-08-21T19:03:07.661Z,97939.00
2023-08-21T19:05:35.223Z,97943.06
2023-08-21T19:08:02.358Z,97945.44
2023-08-21T19:10:29.776Z,97942.50
2023-08-21T19:12:57.335Z,97942.50
2023-08-21T19:15:24.467Z,97943.88
2023-08-21T19:17:51.536Z,97949.28
2023-08-21T19:20:18.735Z,97940.78
2023-08-21T19:22:45.725Z,97942.53
2023-08-21T19:25:13.763Z,97940.91
2023-08-21T19:27:41.302Z,97951.81
2023-08-21T19:30:09.258Z,97947.38
2023-08-21T19:32:39.163Z,97942.75
2023-08-21T19:35:06.636Z,97951.91
2023-08-21T19:37:33.779Z,97947.50
2023-08-21T19:40:01.135Z,97955.81
2023-08-21T19:42:28.445Z,97944.09
2023-08-21T19:44:55.750Z,97942.47
2023-08-21T19:47:22.815Z,97949.13
2023-08-21T19:49:50.420Z,97944.44
2023-08-21T19:52:17.846Z,97949.81
2023-08-21T19:54:46.887Z,97956.47
2023-08-21T19:57:14.027Z,97943.94
2023-08-21T19:59:41.584Z,97948.59
2023-08-21T20:02:08.743Z,97952.31
2023-08-21T20:04:36.042Z,97960.63
2023-08-21T20:07:03.378Z,97966.03
2023-08-21T20:09:30.395Z,97951.56
2023-08-21T20:11:57.472Z,97962.53
2023-08-21T20:14:25.195Z,97952.97
2023-08-21T20:16:52.453Z,97952.84
2023-08-21T20:19:20.293Z,97954.81
2023-08-21T20:21:47.354Z,97957.84
2023-08-21T20:24:14.481Z,97956.34
2023-08-21T20:26:41.522Z,97956.13
2023-08-21T20:29:10.635Z,97957.41
2023-08-21T20:31:37.711Z,97959.72
2023-08-21T20:34:04.869Z,97963.34
2023-08-21T20:36:32.126Z,97951.88
2023-08-21T20:38:59.219Z,97950.38
2023-08-21T20:41:26.340Z,97942.91
2023-08-21T20:43:53.671Z,97942.91
2023-08-21T20:46:21.032Z,97946.78
2023-08-21T20:48:48.099Z,97945.72
2023-08-21T20:51:15.431Z,97947.59
2023-08-21T20:53:42.486Z,97947.25
2023-08-21T20:56:11.114Z,97947.25
2023-08-21T20:58:38.793Z,97952.59
2023-08-21T21:01:06.021Z,97952.03
2023-08-21T21:03:33.136Z,97945.03
2023-08-21T21:06:00.287Z,97948.66
2023-08-21T21:08:27.322Z,97949.72
2023-08-21T21:10:55.037Z,97942.59
2023-08-21T21:13:22.026Z,97940.13
2023-08-21T21:15:49.318Z,97950.88
2023-08-21T21:18:16.418Z,97944.03
2023-08-21T21:20:43.571Z,97948.41
2023-08-21T21:23:10.628Z,97955.28
2023-08-21T21:25:37.872Z,97947.69
2023-08-21T21:28:05.314Z,97948.88
2023-08-21T21:30:32.390Z,97949.84
2023-08-21T21:32:59.470Z,97951.47
2023-08-21T21:35:26.503Z,97953.47
2023-08-21T21:37:53.496Z,97946.78
2023-08-21T21:40:20.638Z,97945.59
2023-08-21T21:42:47.761Z,97950.41
2023-08-21T21:45:14.821Z,97945.88
2023-08-21T21:47:42.209Z,97947.75
2023-08-21T21:50:10.829Z,97946.81
2023-08-21T21:52:37.970Z,97949.16
2023-08-21T21:55:05.749Z,97950.44
2023-08-21T21:57:32.796Z,97943.06
2023-08-21T21:59:59.805Z,97951.94
2023-08-21T22:02:27.047Z,97947.13
2023-08-21T22:04:54.113Z,97953.00
2023-08-21T22:07:21.379Z,97947.25
2023-08-21T22:09:49.032Z,97943.75
2023-08-21T22:12:16.127Z,97947.13
2023-08-21T22:14:43.145Z,97957.63
2023-08-21T22:17:10.176Z,97953.50
2023-08-21T22:19:38.473Z,97950.13
2023-08-21T22:22:05.490Z,97948.03
2023-08-21T22:24:32.591Z,97947.44
2023-08-21T22:26:59.695Z,97949.44
2023-08-21T22:29:26.763Z,97953.91
2023-08-21T22:31:53.816Z,97949.47
2023-08-21T22:34:20.886Z,97944.34
2023-08-21T22:36:48.424Z,97948.69
2023-08-21T22:39:15.725Z,97945.94
2023-08-21T22:41:44.746Z,97939.63
2023-08-21T22:44:11.791Z,97943.47
2023-08-21T22:46:38.822Z,97937.53
2023-08-21T22:49:05.801Z,97941.56
2023-08-21T22:51:32.910Z,97938.44
2023-08-21T22:53:59.895Z,97937.41
2023-08-21T22:56:26.964Z,97934.03
2023-08-21T22:58:54.097Z,97937.97
2023-08-21T23:01:21.394Z,97942.75
2023-08-21T23:03:48.596Z,97929.78
2023-08-21T23:06:15.714Z,97925.34
2023-08-21T23:08:42.742Z,97926.75
2023-08-21T23:11:09.892Z,97930.72
2023-08-21T23:13:37.029Z,97935.63
2023-08-21T23:16:04.399Z,97932.81
2023-08-21T23:18:31.488Z,97943.25
2023-08-21T23:21:03.074Z,97946.13
2023-08-21T23:23:30.372Z,97940.56
2023-08-21T23:25:59.708Z,97932.38
2023-08-21T23:28:26.772Z,97929.66
2023-08-21T23:30:54.566Z,97932.31
2023-08-21T23:33:22.691Z,97937.16
2023-08-21T23:35:49.896Z,97936.66
2023-08-21T23:38:17.128Z,97941.41
2023-08-21T23:40:44.264Z,97935.97
2023-08-21T23:43:12.925Z,97927.84
2023-08-21T23:45:40.522Z,97928.56
2023-08-21T23:48:07.769Z,97924.56
2023-08-21T23:50:34.978Z,97925.50
2023-08-21T23:53:06.481Z,97931.41
2023-08-21T23:55:34.979Z,97930.31
2023-08-21T23:58:04.716Z,97937.63
